Time;durP1;ratioP1;P1;durP2;ratioP2;P2;SDS_P1;SDS_P2;PMS_P1;PMS_P2;Temp;Humidity;BMP_temperature;BMP_pressure;BME280_temperature;BME280_humidity;BME280_pressure;Samples;Min_cycle;Max_cycle;Signal;HPM_P1;HPM_P2
2023/09/13 00:01:44;;;;;;;10.70;7.38;;;;;;;;;;5102508;28;20032;-61
2023/09/13 00:04:11;;;;;;;12.27;8.00;;;;;;;;;;5103214;28;20034;-62
2023/09/13 00:06:37;;;;;;;12.95;7.80;;;;;;;;;;5103751;28;20035;-61
2023/09/13 00:09:08;;;;;;;10.65;8.05;;;;;;;;;;5102444;28;20426;-61
2023/09/13 00:11:37;;;;;;;11.10;7.43;;;;;;;;;;5103434;28;20039;-61
2023/09/13 00:14:03;;;;;;;;;;;;;;;;;;5101970;28;20043;-61
2023/09/13 00:16:29;;;;;;;10.30;7.72;;;;;;;;;;5106076;28;19912;-61
2023/09/13 00:18:55;;;;;;;11.07;8.05;;;;;;;;;;5103912;28;20034;-61
2023/09/13 00:21:21;;;;;;;12.70;7.85;;;;;;;;;;5084258;28;20479;-60
2023/09/13 00:23:48;;;;;;;8.73;6.63;;;;;;;;;;5101292;28;20411;-61
2023/09/13 00:26:14;;;;;;;10.90;7.53;;;;;;;;;;5103033;28;20449;-60
2023/09/13 00:28:41;;;;;;;10.88;7.47;;;;;;;;;;5086330;28;20027;-60
2023/09/13 00:31:10;;;;;;;11.90;7.38;;;;;;;;;;5083430;28;20032;-60
2023/09/13 00:33:37;;;;;;;10.05;6.97;;;;;;;;;;5101737;28;20035;-60
2023/09/13 00:36:03;;;;;;;9.38;7.00;;;;;;;;;;5101732;28;20042;-60
2023/09/13 00:38:29;;;;;;;13.00;8.07;;;;;;;;;;5084937;28;20039;-60
2023/09/13 00:40:55;;;;;;;11.00;7.20;;;;;;;;;;5086083;28;20487;-60
2023/09/13 00:43:22;;;;;;;10.82;7.63;;;;;;;;;;5082134;28;20118;-60
2023/09/13 00:45:50;;;;;;;10.07;6.85;;;;;;;;;;5103775;28;20039;-62
2023/09/13 00:48:17;;;;;;;12.10;8.10;;;;;;;;;;5102614;28;20035;-62
2023/09/13 00:50:45;;;;;;;11.68;7.47;;;;;;;;;;5083135;28;20304;-61
2023/09/13 00:53:12;;;;;;;9.07;7.50;;;;;;;;;;5085533;28;20027;-61
2023/09/13 00:55:38;;;;;;;15.00;8.45;;;;;;;;;;5103402;28;20402;-61
2023/09/13 00:58:05;;;;;;;11.02;7.47;;;;;;;;;;5085096;28;20032;-60
2023/09/13 01:00:34;;;;;;;10.73;8.10;;;;;;;;;;5083089;28;20418;-60
2023/09/13 01:03:03;;;;;;;14.32;7.80;;;;;;;;;;5101200;28;20418;-60
2023/09/13 01:05:29;;;;;;;11.60;8.65;;;;;;;;;;5087883;28;20375;-62
2023/09/13 01:07:55;;;;;;;12.93;8.07;;;;;;;;;;5101010;28;20039;-61
2023/09/13 01:10:21;;;;;;;14.32;8.35;;;;;;;;;;5099640;28;20043;-60
2023/09/13 01:12:47;;;;;;;11.43;8.80;;;;;;;;;;5082250;28;20035;-60
2023/09/13 01:15:14;;;;;;;12.25;8.45;;;;;;;;;;5086560;28;20046;-60
2023/09/13 01:17:47;;;;;;;13.13;8.95;;;;;;;;;;5086099;28;20044;-59
2023/09/13 01:20:19;;;;;;;12.48;8.68;;;;;;;;;;5083326;28;20036;-61
2023/09/13 01:23:13;;;;;;;11.98;9.18;;;;;;;;;;5103035;28;20055;-60
2023/09/13 01:26:04;;;;;;;13.32;9.63;;;;;;;;;;5084971;28;20043;-60
2023/09/13 01:28:35;;;;;;;12.75;9.13;;;;;;;;;;5102915;28;20427;-60
2023/09/13 01:31:06;;;;;;;15.40;9.05;;;;;;;;;;5100486;28;20044;-61
2023/09/13 01:33:33;;;;;;;13.55;9.55;;;;;;;;;;5103034;28;20039;-59
2023/09/13 01:35:59;;;;;;;16.70;9.43;;;;;;;;;;5083316;28;20487;-59
2023/09/13 01:38:26;;;;;;;14.45;10.05;;;;;;;;;;5089765;28;20027;-59
2023/09/13 01:41:13;;;;;;;14.30;9.25;;;;;;;;;;5083734;28;20031;-59
2023/09/13 01:43:41;;;;;;;14.00;9.77;;;;;;;;;;5101900;28;20426;-59
2023/09/13 01:46:08;;;;;;;15.50;9.75;;;;;;;;;;5102763;28;20027;-59
2023/09/13 01:48:36;;;;;;;14.82;9.90;;;;;;;;;;5084541;28;20039;-60
2023/09/13 01:51:03;;;;;;;14.70;10.02;;;;;;;;;;5106091;28;20525;-60
2023/09/13 01:53:29;;;;;;;12.95;9.95;;;;;;;;;;5104995;28;20513;-61
2023/09/13 01:55:56;;;;;;;18.90;10.10;;;;;;;;;;5103142;28;20050;-60
2023/09/13 01:58:22;;;;;;;14.50;9.65;;;;;;;;;;5102053;28;20055;-60
2023/09/13 02:00:48;;;;;;;18.48;10.65;;;;;;;;;;5085962;28;20036;-60
2023/09/13 02:03:14;;;;;;;14.50;10.02;;;;;;;;;;5100653;28;20048;-59
2023/09/13 02:05:41;;;;;;;14.65;10.55;;;;;;;;;;5103170;28;20040;-60
2023/09/13 02:08:07;;;;;;;13.93;10.13;;;;;;;;;;5086483;28;20039;-59
2023/09/13 02:10:34;;;;;;;13.75;10.13;;;;;;;;;;5106782;28;20038;-59
2023/09/13 02:13:00;;;;;;;14.90;10.63;;;;;;;;;;5084713;28;20047;-59
2023/09/13 02:15:29;;;;;;;17.38;11.25;;;;;;;;;;5082374;28;20032;-60
2023/09/13 02:17:56;;;;;;;16.77;9.80;;;;;;;;;;5087553;28;20056;-59
2023/09/13 02:20:22;;;;;;;13.25;10.43;;;;;;;;;;5086698;28;20043;-60
2023/09/13 02:22:48;;;;;;;17.40;10.65;;;;;;;;;;5105567;28;20046;-60
2023/09/13 02:25:16;;;;;;;15.73;10.35;;;;;;;;;;5084690;28;20024;-58
2023/09/13 02:27:42;;;;;;;15.23;10.15;;;;;;;;;;5086749;28;20031;-60
2023/09/13 02:30:08;;;;;;;18.45;10.85;;;;;;;;;;5088406;28;20028;-60
2023/09/13 02:32:34;;;;;;;13.90;9.45;;;;;;;;;;5084524;28;20036;-60
2023/09/13 02:35:01;;;;;;;14.45;9.90;;;;;;;;;;5106615;28;20024;-59
2023/09/13 02:37:28;;;;;;;12.75;9.65;;;;;;;;;;5086782;28;20044;-60
2023/09/13 02:39:54;;;;;;;14.85;9.73;;;;;;;;;;5096646;28;20028;-59
2023/09/13 02:42:20;;;;;;;15.18;9.70;;;;;;;;;;5087392;28;20032;-59
2023/09/13 02:44:46;;;;;;;19.77;11.85;;;;;;;;;;5083692;28;20024;-59
2023/09/13 02:47:13;;;;;;;27.63;14.95;;;;;;;;;;5106921;28;20048;-60
2023/09/13 02:49:39;;;;;;;16.50;11.88;;;;;;;;;;5087986;28;20030;-59
2023/09/13 02:52:05;;;;;;;17.60;12.20;;;;;;;;;;5086653;28;20548;-60
2023/09/13 02:54:31;;;;;;;21.75;10.85;;;;;;;;;;5105377;28;20066;-60
2023/09/13 02:56:58;;;;;;;16.85;10.50;;;;;;;;;;5089404;28;20027;-60
2023/09/13 02:59:27;;;;;;;16.70;10.48;;;;;;;;;;5083956;28;20533;-60
2023/09/13 03:01:53;;;;;;;14.88;9.98;;;;;;;;;;5103490;28;20036;-61
2023/09/13 03:04:20;;;;;;;14.35;9.55;;;;;;;;;;5083867;28;20047;-60
2023/09/13 03:06:49;;;;;;;19.38;10.85;;;;;;;;;;5085322;28;20068;-60
2023/09/13 03:09:15;;;;;;;17.08;9.57;;;;;;;;;;5071995;28;20735;-60
2023/09/13 03:11:42;;;;;;;15.63;10.23;;;;;;;;;;5105192;28;20036;-60
2023/09/13 03:14:10;;;;;;;13.17;9.43;;;;;;;;;;5105213;28;20031;-60
2023/09/13 03:16:37;;;;;;;14.40;9.70;;;;;;;;;;5086503;28;20040;-61
2023/09/13 03:19:03;;;;;;;14.15;9.75;;;;;;;;;;5084408;28;20035;-60
2023/09/13 03:21:34;;;;;;;14.85;10.13;;;;;;;;;;5083870;28;20117;-60
2023/09/13 03:24:01;;;;;;;14.25;9.77;;;;;;;;;;5083625;28;20043;-60
2023/09/13 03:26:27;;;;;;;14.95;10.05;;;;;;;;;;5070154;28;20508;-60
2023/09/13 03:28:55;;;;;;;14.98;9.88;;;;;;;;;;5069036;28;20047;-60
2023/09/13 03:31:26;;;;;;;20.08;10.32;;;;;;;;;;5088059;28;20043;-60
2023/09/13 03:33:55;;;;;;;15.60;10.05;;;;;;;;;;5083034;28;20051;-60
2023/09/13 03:36:24;;;;;;;15.93;9.60;;;;;;;;;;5087831;28;20075;-60
2023/09/13 03:38:53;;;;;;;16.90;10.20;;;;;;;;;;5081891;28;20031;-60
2023/09/13 03:41:22;;;;;;;14.93;10.30;;;;;;;;;;5083152;28;20040;-59
2023/09/13 03:43:49;;;;;;;16.08;10.32;;;;;;;;;;5078693;28;20051;-59
2023/09/13 03:46:16;;;;;;;13.35;10.23;;;;;;;;;;5090013;28;20395;-60
2023/09/13 03:48:43;;;;;;;18.23;10.48;;;;;;;;;;5086624;28;20031;-61
2023/09/13 03:51:11;;;;;;;17.13;10.18;;;;;;;;;;5082494;28;20030;-60
2023/09/13 03:53:37;;;;;;;20.08;11.88;;;;;;;;;;5080076;28;20032;-59
2023/09/13 03:56:05;;;;;;;18.45;11.48;;;;;;;;;;5086123;28;20039;-60
2023/09/13 03:58:33;;;;;;;17.40;11.20;;;;;;;;;;5080147;28;20447;-60
2023/09/13 04:01:00;;;;;;;13.40;9.75;;;;;;;;;;5083057;28;20027;-62
2023/09/13 04:03:26;;;;;;;12.93;9.52;;;;;;;;;;5085198;28;20391;-60
2023/09/13 04:05:53;;;;;;;18.90;10.52;;;;;;;;;;5085437;28;20039;-60
2023/09/13 04:08:19;;;;;;;14.73;10.18;;;;;;;;;;5090566;28;20034;-60
2023/09/13 04:10:45;;;;;;;17.58;10.50;;;;;;;;;;5086584;28;20032;-59
2023/09/13 04:13:12;;;;;;;16.67;10.85;;;;;;;;;;5101433;28;20031;-61
2023/09/13 04:15:38;;;;;;;13.32;9.85;;;;;;;;;;5085166;28;20043;-60
2023/09/13 04:18:04;;;;;;;16.05;10.00;;;;;;;;;;5087481;28;20023;-60
2023/09/13 04:20:31;;;;;;;14.27;9.85;;;;;;;;;;5086231;28;20422;-60
2023/09/13 04:22:57;;;;;;;12.25;9.43;;;;;;;;;;5083521;28;20032;-61
2023/09/13 04:25:23;;;;;;;21.23;12.65;;;;;;;;;;5082688;28;20047;-59
2023/09/13 04:27:49;;;;;;;15.88;10.48;;;;;;;;;;5085532;28;20028;-58
2023/09/13 04:30:16;;;;;;;14.75;10.07;;;;;;;;;;5105611;28;20035;-57
2023/09/13 04:32:42;;;;;;;15.48;9.95;;;;;;;;;;5085696;28;20066;-57
2023/09/13 04:35:09;;;;;;;14.90;9.73;;;;;;;;;;5087186;28;20438;-57
2023/09/13 04:37:35;;;;;;;15.73;9.75;;;;;;;;;;5085902;28;20051;-58
2023/09/13 04:40:05;;;;;;;12.55;9.18;;;;;;;;;;5081476;28;20039;-56
2023/09/13 04:42:42;;;;;;;14.95;9.48;;;;;;;;;;5085400;28;20403;-57
2023/09/13 04:45:10;;;;;;;12.85;8.82;;;;;;;;;;5084885;28;20046;-57
2023/09/13 04:47:38;;;;;;;16.05;9.43;;;;;;;;;;5085667;28;20490;-57
2023/09/13 04:50:05;;;;;;;13.40;9.02;;;;;;;;;;5086044;28;20034;-56
2023/09/13 04:52:31;;;;;;;14.30;9.40;;;;;;;;;;5073593;28;20039;-57
2023/09/13 04:54:57;;;;;;;13.95;9.43;;;;;;;;;;5086873;28;20028;-57
2023/09/13 04:57:24;;;;;;;15.10;9.70;;;;;;;;;;5105308;28;20506;-57
2023/09/13 04:59:51;;;;;;;14.40;9.20;;;;;;;;;;5083810;28;20046;-57
2023/09/13 05:02:17;;;;;;;15.77;9.68;;;;;;;;;;5100200;28;20492;-56
2023/09/13 05:04:45;;;;;;;13.57;8.93;;;;;;;;;;5075130;28;20044;-57
2023/09/13 05:07:11;;;;;;;14.80;9.13;;;;;;;;;;5103280;28;20028;-57
2023/09/13 05:09:38;;;;;;;12.52;8.48;;;;;;;;;;5101113;28;20407;-59
2023/09/13 05:12:04;;;;;;;15.10;9.35;;;;;;;;;;5104673;28;20035;-59
2023/09/13 05:14:30;;;;;;;15.75;9.60;;;;;;;;;;5100413;28;20051;-57
2023/09/13 05:16:56;;;;;;;15.27;9.85;;;;;;;;;;5104749;28;20059;-61
2023/09/13 05:19:22;;;;;;;12.65;9.02;;;;;;;;;;5108156;28;20035;-60
2023/09/13 05:21:48;;;;;;;15.35;10.65;;;;;;;;;;5107587;28;20034;-61
2023/09/13 05:24:14;;;;;;;14.82;9.25;;;;;;;;;;5104255;28;20044;-59
2023/09/13 05:26:40;;;;;;;19.88;9.27;;;;;;;;;;5109426;28;20031;-60
2023/09/13 05:29:06;;;;;;;15.15;9.07;;;;;;;;;;5084095;28;20039;-60
2023/09/13 05:31:33;;;;;;;15.25;9.13;;;;;;;;;;5106999;28;20047;-60
2023/09/13 05:33:59;;;;;;;14.90;9.15;;;;;;;;;;5105183;28;20027;-60
2023/09/13 05:36:25;;;;;;;14.52;9.73;;;;;;;;;;5106147;28;20031;-60
2023/09/13 05:38:51;;;;;;;12.70;9.00;;;;;;;;;;5106862;28;20031;-60
2023/09/13 05:41:18;;;;;;;14.02;10.00;;;;;;;;;;5102691;28;20047;-60
2023/09/13 05:43:45;;;;;;;17.20;11.35;;;;;;;;;;5103392;27;20044;-60
2023/09/13 05:46:11;;;;;;;17.50;10.93;;;;;;;;;;5109795;27;20042;-60
2023/09/13 05:48:37;;;;;;;16.85;10.88;;;;;;;;;;5108131;27;20032;-60
2023/09/13 05:51:06;;;;;;;20.90;11.25;;;;;;;;;;5083886;28;20067;-60
2023/09/13 05:53:32;;;;;;;;;;;;;;;;;;5104960;27;20059;-60
2023/09/13 05:55:58;;;;;;;17.05;11.38;;;;;;;;;;5103914;27;19939;-60
2023/09/13 05:58:25;;;;;;;16.88;10.95;;;;;;;;;;5110377;27;20023;-60
2023/09/13 06:00:51;;;;;;;15.23;10.57;;;;;;;;;;5070462;28;20407;-60
2023/09/13 06:03:19;;;;;;;21.75;12.25;;;;;;;;;;5106718;27;20027;-60
2023/09/13 06:05:49;;;;;;;17.58;11.30;;;;;;;;;;5086403;28;20031;-60
2023/09/13 06:08:15;;;;;;;19.98;12.18;;;;;;;;;;5105448;27;20028;-60
2023/09/13 06:10:41;;;;;;;19.10;11.52;;;;;;;;;;5109078;27;20039;-60
2023/09/13 06:13:07;;;;;;;20.40;11.98;;;;;;;;;;5100884;27;20031;-59
2023/09/13 06:15:33;;;;;;;20.63;11.40;;;;;;;;;;5109471;27;20046;-60
2023/09/13 06:17:59;;;;;;;18.75;11.43;;;;;;;;;;5114446;27;20086;-60
2023/09/13 06:20:25;;;;;;;17.73;10.70;;;;;;;;;;5085243;28;20054;-60
2023/09/13 06:22:54;;;;;;;17.30;11.40;;;;;;;;;;5086973;27;21990;-60
2023/09/13 06:25:20;;;;;;;16.88;11.50;;;;;;;;;;5105451;28;20678;-60
2023/09/13 06:27:46;;;;;;;16.13;11.63;;;;;;;;;;5111592;27;20047;-60
2023/09/13 06:30:13;;;;;;;17.15;11.10;;;;;;;;;;5108529;27;20035;-59
2023/09/13 06:32:40;;;;;;;18.38;11.27;;;;;;;;;;5111753;27;20042;-59
2023/09/13 06:35:10;;;;;;;19.30;11.68;;;;;;;;;;5103268;27;20040;-59
2023/09/13 06:37:36;;;;;;;16.90;11.35;;;;;;;;;;5104633;27;20073;-60
2023/09/13 06:40:03;;;;;;;20.55;11.75;;;;;;;;;;5093103;28;20023;-59
2023/09/13 06:42:29;;;;;;;15.88;11.10;;;;;;;;;;5108198;28;20035;-59
2023/09/13 06:44:56;;;;;;;18.88;10.75;;;;;;;;;;5101954;28;20051;-59
2023/09/13 06:47:22;;;;;;;17.80;10.50;;;;;;;;;;5106782;28;20394;-59
2023/09/13 06:49:48;;;;;;;17.17;10.32;;;;;;;;;;5101926;28;20047;-60
2023/09/13 06:52:14;;;;;;;16.60;10.73;;;;;;;;;;5103598;28;20039;-60
2023/09/13 06:54:40;;;;;;;16.83;10.52;;;;;;;;;;5103994;28;20494;-62
2023/09/13 06:57:08;;;;;;;16.33;10.00;;;;;;;;;;5106243;28;20036;-60
2023/09/13 06:59:35;;;;;;;15.65;9.73;;;;;;;;;;5086150;28;20402;-60
2023/09/13 07:02:01;;;;;;;15.55;10.73;;;;;;;;;;5102516;28;20039;-60
2023/09/13 07:04:27;;;;;;;15.27;10.00;;;;;;;;;;5104943;28;20043;-60
2023/09/13 07:06:53;;;;;;;15.45;10.82;;;;;;;;;;5104709;28;20044;-60
2023/09/13 07:09:19;;;;;;;15.32;9.73;;;;;;;;;;5086792;28;20050;-60
2023/09/13 07:11:45;;;;;;;15.10;10.65;;;;;;;;;;5102189;28;20039;-60
2023/09/13 07:14:11;;;;;;;14.85;10.30;;;;;;;;;;5099933;28;20106;-60
2023/09/13 07:16:37;;;;;;;17.38;10.10;;;;;;;;;;5104155;28;20607;-60
2023/09/13 07:19:03;;;;;;;18.23;10.65;;;;;;;;;;5108304;28;20047;-60
2023/09/13 07:21:29;;;;;;;18.52;10.23;;;;;;;;;;5107090;28;20036;-59
2023/09/13 07:23:55;;;;;;;14.30;9.30;;;;;;;;;;5105153;28;20038;-59
2023/09/13 07:26:21;;;;;;;12.77;9.20;;;;;;;;;;5106167;28;20083;-60
2023/09/13 07:28:48;;;;;;;13.10;9.05;;;;;;;;;;5104775;28;20028;-60
2023/09/13 07:31:14;;;;;;;14.48;9.20;;;;;;;;;;5102405;28;20055;-60
2023/09/13 07:33:40;;;;;;;14.63;9.45;;;;;;;;;;5079687;28;20055;-60
2023/09/13 07:36:06;;;;;;;17.50;9.48;;;;;;;;;;5099944;28;20054;-60
2023/09/13 07:38:32;;;;;;;13.23;9.40;;;;;;;;;;5102022;28;20066;-60
2023/09/13 07:40:58;;;;;;;14.02;9.30;;;;;;;;;;5104672;28;20047;-60
2023/09/13 07:43:24;;;;;;;12.93;8.65;;;;;;;;;;5100610;28;20039;-60
2023/09/13 07:45:51;;;;;;;15.75;9.23;;;;;;;;;;5104904;28;20042;-60
2023/09/13 07:48:17;;;;;;;14.07;8.90;;;;;;;;;;5105641;28;20502;-60
2023/09/13 07:50:44;;;;;;;12.35;8.95;;;;;;;;;;5081729;28;20028;-60
2023/09/13 07:53:11;;;;;;;15.52;8.85;;;;;;;;;;5102888;28;20035;-60
2023/09/13 07:55:38;;;;;;;13.52;9.13;;;;;;;;;;5083386;28;20040;-60
2023/09/13 07:58:06;;;;;;;13.18;9.40;;;;;;;;;;5101335;28;20031;-61
2023/09/13 08:00:33;;;;;;;16.40;9.80;;;;;;;;;;5102266;28;20430;-60
2023/09/13 08:03:00;;;;;;;12.35;9.27;;;;;;;;;;5079093;28;20027;-60
2023/09/13 08:05:27;;;;;;;14.35;8.50;;;;;;;;;;5101988;28;20055;-60
2023/09/13 08:07:54;;;;;;;13.77;9.02;;;;;;;;;;5104675;28;20036;-60
2023/09/13 08:10:22;;;;;;;15.50;9.07;;;;;;;;;;5098840;28;20039;-60
2023/09/13 08:12:48;;;;;;;15.07;9.55;;;;;;;;;;5098954;28;20044;-60
2023/09/13 08:15:15;;;;;;;14.07;8.85;;;;;;;;;;5100327;28;20050;-60
2023/09/13 08:17:42;;;;;;;14.05;9.57;;;;;;;;;;5105770;28;20066;-60
2023/09/13 08:20:08;;;;;;;20.23;10.13;;;;;;;;;;5087583;28;20086;-60
2023/09/13 08:22:36;;;;;;;13.50;9.23;;;;;;;;;;5105522;28;20058;-60
2023/09/13 08:25:03;;;;;;;14.90;9.27;;;;;;;;;;5103210;28;20482;-61
2023/09/13 08:27:30;;;;;;;14.63;9.50;;;;;;;;;;5104171;28;20043;-60
2023/09/13 08:29:56;;;;;;;14.98;9.90;;;;;;;;;;5086809;28;20047;-60
2023/09/13 08:32:23;;;;;;;15.57;9.50;;;;;;;;;;5103651;28;20042;-61
2023/09/13 08:34:49;;;;;;;16.30;9.98;;;;;;;;;;5100919;28;20040;-60
2023/09/13 08:37:16;;;;;;;12.32;8.45;;;;;;;;;;5102139;28;20055;-60
2023/09/13 08:39:42;;;;;;;14.23;9.63;;;;;;;;;;5103103;28;20517;-60
2023/09/13 08:42:09;;;;;;;11.90;9.32;;;;;;;;;;5098293;28;20030;-60
2023/09/13 08:44:37;;;;;;;11.35;8.75;;;;;;;;;;5099477;28;20054;-60
2023/09/13 08:47:05;;;;;;;14.07;9.55;;;;;;;;;;5101792;28;20517;-60
2023/09/13 08:49:34;;;;;;;13.60;8.45;;;;;;;;;;5104729;28;20047;-60
2023/09/13 08:52:00;;;;;;;15.38;9.18;;;;;;;;;;5101109;28;20027;-60
2023/09/13 08:54:27;;;;;;;13.85;8.75;;;;;;;;;;5080971;28;20047;-60
2023/09/13 08:56:55;;;;;;;14.35;9.23;;;;;;;;;;5104624;28;20028;-60
2023/09/13 08:59:22;;;;;;;12.85;9.25;;;;;;;;;;5100908;28;20062;-61
2023/09/13 09:01:50;;;;;;;14.00;9.05;;;;;;;;;;5101584;28;20024;-59
2023/09/13 09:04:18;;;;;;;15.13;9.40;;;;;;;;;;5074870;28;20062;-60
2023/09/13 09:06:45;;;;;;;15.27;9.68;;;;;;;;;;5100428;28;20036;-60
2023/09/13 09:09:12;;;;;;;13.10;9.30;;;;;;;;;;5100099;28;20042;-61
2023/09/13 09:11:47;;;;;;;12.68;10.07;;;;;;;;;;5099607;28;20486;-60
2023/09/13 09:14:16;;;;;;;10.90;9.20;;;;;;;;;;5102015;28;20556;-61
2023/09/13 09:16:44;;;;;;;11.77;9.18;;;;;;;;;;5105422;28;20507;-61
2023/09/13 09:19:10;;;;;;;14.88;9.90;;;;;;;;;;5104693;28;20071;-60
2023/09/13 09:21:37;;;;;;;17.35;9.55;;;;;;;;;;5085170;28;20047;-60
2023/09/13 09:24:04;;;;;;;12.95;8.95;;;;;;;;;;5101734;28;20047;-60
2023/09/13 09:26:30;;;;;;;15.18;8.73;;;;;;;;;;5104932;28;20031;-60
2023/09/13 09:29:13;;;;;;;12.18;8.50;;;;;;;;;;5102345;28;20027;-60
2023/09/13 09:31:39;;;;;;;13.95;8.60;;;;;;;;;;5100260;28;20044;-60
2023/09/13 09:34:08;;;;;;;12.48;8.60;;;;;;;;;;5095169;28;20056;-60
2023/09/13 09:36:41;;;;;;;13.35;9.38;;;;;;;;;;5101420;28;20066;-61
2023/09/13 09:39:08;;;;;;;11.70;8.52;;;;;;;;;;5103349;28;20039;-60
2023/09/13 09:41:35;;;;;;;15.57;10.07;;;;;;;;;;5099642;28;20040;-60
2023/09/13 09:44:02;;;;;;;15.38;9.75;;;;;;;;;;5100887;28;20062;-60
2023/09/13 09:46:33;;;;;;;19.08;10.48;;;;;;;;;;5100676;28;20032;-61
2023/09/13 09:49:00;;;;;;;12.80;9.20;;;;;;;;;;5103026;28;20039;-60
2023/09/13 09:51:28;;;;;;;17.65;9.98;;;;;;;;;;5102071;28;20054;-60
2023/09/13 09:53:57;;;;;;;15.55;10.55;;;;;;;;;;5099451;28;20031;-60
2023/09/13 09:56:24;;;;;;;;;;;;;;;;;;5082257;28;20042;-60
2023/09/13 09:58:51;;;;;;;15.18;10.13;;;;;;;;;;5100873;28;19964;-60
2023/09/13 10:01:18;;;;;;;14.40;10.15;;;;;;;;;;5102467;28;20055;-61
2023/09/13 10:03:45;;;;;;;19.92;10.00;;;;;;;;;;5082115;28;20043;-60
2023/09/13 10:06:13;;;;;;;15.32;9.45;;;;;;;;;;5104751;28;20494;-60
2023/09/13 10:08:46;;;;;;;13.55;9.70;;;;;;;;;;5106897;28;20043;-60
2023/09/13 10:11:14;;;;;;;13.90;9.18;;;;;;;;;;5100883;28;20048;-60
2023/09/13 10:13:42;;;;;;;13.15;9.27;;;;;;;;;;5105595;28;21776;-60
2023/09/13 10:16:11;;;;;;;15.82;9.38;;;;;;;;;;5106849;28;20059;-60
2023/09/13 10:18:43;;;;;;;12.70;8.98;;;;;;;;;;5107548;28;20039;-60
2023/09/13 10:21:10;;;;;;;15.13;8.82;;;;;;;;;;5106156;28;20096;-60
2023/09/13 10:23:41;;;;;;;12.98;8.48;;;;;;;;;;5105257;28;20051;-60
2023/09/13 10:26:09;;;;;;;12.40;8.52;;;;;;;;;;5107101;28;20024;-60
2023/09/13 10:28:39;;;;;;;16.57;8.40;;;;;;;;;;5099563;28;20035;-60
2023/09/13 10:31:11;;;;;;;14.93;7.95;;;;;;;;;;5086425;28;20035;-59
2023/09/13 10:33:39;;;;;;;9.45;6.82;;;;;;;;;;5104233;28;20060;-60
2023/09/13 10:36:10;;;;;;;11.18;7.00;;;;;;;;;;5104831;28;20035;-59
2023/09/13 10:38:49;;;;;;;9.85;6.50;;;;;;;;;;5102136;28;20048;-60
2023/09/13 10:41:18;;;;;;;8.95;7.03;;;;;;;;;;5103777;28;20051;-60
2023/09/13 10:43:46;;;;;;;9.55;6.85;;;;;;;;;;5103328;28;20035;-59
2023/09/13 10:46:13;;;;;;;13.10;7.43;;;;;;;;;;5100215;28;20051;-60
2023/09/13 10:48:40;;;;;;;8.65;6.55;;;;;;;;;;5104372;28;20043;-60
2023/09/13 10:51:08;;;;;;;10.07;6.57;;;;;;;;;;5103076;28;20031;-60
2023/09/13 10:53:36;;;;;;;8.65;6.60;;;;;;;;;;5104140;27;20421;-59
2023/09/13 10:56:03;;;;;;;7.50;6.65;;;;;;;;;;5102395;28;20036;-58
2023/09/13 10:58:30;;;;;;;9.00;6.72;;;;;;;;;;5099904;28;20039;-57
2023/09/13 11:00:58;;;;;;;10.63;7.05;;;;;;;;;;5102272;28;20036;-58
2023/09/13 11:03:24;;;;;;;9.80;6.50;;;;;;;;;;5083756;28;20036;-57
2023/09/13 11:05:55;;;;;;;14.52;7.05;;;;;;;;;;5101428;28;20031;-59
2023/09/13 11:08:29;;;;;;;11.18;6.95;;;;;;;;;;5100063;28;20047;-58
2023/09/13 11:10:56;;;;;;;11.45;6.68;;;;;;;;;;5103950;28;20035;-58
2023/09/13 11:13:30;;;;;;;9.40;6.20;;;;;;;;;;5104998;28;20043;-60
2023/09/13 11:16:03;;;;;;;13.25;7.20;;;;;;;;;;5104042;28;20411;-58
2023/09/13 11:18:30;;;;;;;8.75;6.32;;;;;;;;;;5104257;28;20491;-57
2023/09/13 11:20:57;;;;;;;7.60;6.03;;;;;;;;;;5085677;28;20035;-57
2023/09/13 11:23:23;;;;;;;7.93;5.95;;;;;;;;;;5103630;28;20032;-60
2023/09/13 11:25:50;;;;;;;7.90;5.43;;;;;;;;;;5102075;28;20407;-59
2023/09/13 11:28:37;;;;;;;6.82;5.30;;;;;;;;;;5081904;28;20769;-59
2023/09/13 11:31:09;;;;;;;7.43;4.80;;;;;;;;;;5078724;28;20046;-58
2023/09/13 11:33:50;;;;;;;10.77;4.90;;;;;;;;;;5097949;28;20563;-59
2023/09/13 11:36:17;;;;;;;6.90;4.20;;;;;;;;;;5102815;28;20036;-58
2023/09/13 11:38:44;;;;;;;12.40;4.47;;;;;;;;;;5100831;28;20625;-59
2023/09/13 11:41:17;;;;;;;7.85;3.75;;;;;;;;;;5084133;28;21968;-59
2023/09/13 11:43:43;;;;;;;8.13;3.95;;;;;;;;;;5102988;28;20032;-59
2023/09/13 11:46:10;;;;;;;5.53;4.03;;;;;;;;;;5101498;27;20410;-58
2023/09/13 11:48:40;;;;;;;10.43;8.15;;;;;;;;;;5104152;28;20039;-58
2023/09/13 11:51:14;;;;;;;10.48;4.70;;;;;;;;;;5100243;28;20036;-59
2023/09/13 11:53:41;;;;;;;7.60;4.25;;;;;;;;;;5102604;27;20403;-59
2023/09/13 11:56:28;;;;;;;9.10;4.38;;;;;;;;;;5099524;28;20048;-59
2023/09/13 11:58:58;;;;;;;6.78;4.25;;;;;;;;;;5080312;28;20035;-59
2023/09/13 12:01:24;;;;;;;5.13;4.40;;;;;;;;;;5093716;28;20415;-59
2023/09/13 12:03:52;;;;;;;6.70;4.50;;;;;;;;;;5100165;28;20044;-59
2023/09/13 12:06:19;;;;;;;4.80;3.97;;;;;;;;;;5100421;28;20035;-59
2023/09/13 12:08:47;;;;;;;5.95;4.03;;;;;;;;;;5104307;28;20054;-58
2023/09/13 12:11:13;;;;;;;4.90;4.13;;;;;;;;;;5105512;28;20034;-59
2023/09/13 12:13:55;;;;;;;4.80;3.70;;;;;;;;;;5104774;28;20043;-59
2023/09/13 12:16:22;;;;;;;4.80;4.30;;;;;;;;;;5103341;28;20039;-59
2023/09/13 12:18:49;;;;;;;5.25;4.00;;;;;;;;;;5102935;28;20036;-59
2023/09/13 12:21:15;;;;;;;7.57;4.70;;;;;;;;;;5101315;28;20043;-59
2023/09/13 12:23:43;;;;;;;7.32;4.68;;;;;;;;;;5104338;28;20024;-58
2023/09/13 12:26:13;;;;;;;6.60;4.28;;;;;;;;;;5103019;28;20039;-57
2023/09/13 12:28:40;;;;;;;7.38;4.30;;;;;;;;;;5096450;28;20036;-60
2023/09/13 12:31:09;;;;;;;6.13;4.07;;;;;;;;;;5099112;28;20047;-59
2023/09/13 12:33:40;;;;;;;5.45;3.95;;;;;;;;;;5099743;28;20032;-57
2023/09/13 12:36:07;;;;;;;5.28;4.00;;;;;;;;;;5103436;28;20544;-58
2023/09/13 12:38:42;;;;;;;8.65;3.60;;;;;;;;;;5102907;28;20390;-57
2023/09/13 12:41:16;;;;;;;7.72;3.53;;;;;;;;;;5102164;28;20513;-57
2023/09/13 12:43:44;;;;;;;9.23;3.75;;;;;;;;;;5103313;28;20534;-57
2023/09/13 12:46:14;;;;;;;4.32;3.20;;;;;;;;;;5101566;28;20036;-58
2023/09/13 12:48:42;;;;;;;4.93;3.05;;;;;;;;;;5080798;28;20375;-58
2023/09/13 12:51:08;;;;;;;6.18;3.25;;;;;;;;;;5099213;28;20055;-58
2023/09/13 12:53:35;;;;;;;5.85;4.40;;;;;;;;;;5101737;28;20050;-58
2023/09/13 12:56:01;;;;;;;9.00;5.05;;;;;;;;;;5101000;28;20051;-58
2023/09/13 12:58:27;;;;;;;9.60;6.30;;;;;;;;;;5097937;28;20099;-58
2023/09/13 13:00:54;;;;;;;7.43;5.82;;;;;;;;;;5097360;28;20039;-58
2023/09/13 13:03:28;;;;;;;7.45;5.70;;;;;;;;;;5103162;28;20398;-58
2023/09/13 13:05:55;;;;;;;6.07;5.05;;;;;;;;;;5107478;28;20039;-57
2023/09/13 13:08:34;;;;;;;9.07;5.43;;;;;;;;;;5103504;28;20043;-57
2023/09/13 13:11:02;;;;;;;5.93;4.20;;;;;;;;;;5100955;28;20478;-58
2023/09/13 13:13:33;;;;;;;5.70;3.90;;;;;;;;;;5102641;28;20032;-58
2023/09/13 13:16:13;;;;;;;5.32;3.88;;;;;;;;;;5101113;28;20047;-58
2023/09/13 13:18:49;;;;;;;6.22;3.95;;;;;;;;;;5087787;28;20043;-58
2023/09/13 13:21:17;;;;;;;8.25;4.40;;;;;;;;;;5105134;28;20062;-58
2023/09/13 13:23:46;;;;;;;5.05;4.13;;;;;;;;;;5102278;28;20084;-58
2023/09/13 13:26:12;;;;;;;6.70;4.22;;;;;;;;;;5098261;28;20395;-58
2023/09/13 13:28:39;;;;;;;5.75;4.40;;;;;;;;;;5083143;28;20147;-58
2023/09/13 13:31:05;;;;;;;5.13;4.13;;;;;;;;;;5098711;28;20636;-58
2023/09/13 13:33:35;;;;;;;5.95;4.22;;;;;;;;;;5088188;28;20047;-60
2023/09/13 13:36:02;;;;;;;4.60;3.95;;;;;;;;;;5107764;28;20039;-58
2023/09/13 13:38:28;;;;;;;6.20;3.63;;;;;;;;;;5106941;28;20042;-59
2023/09/13 13:41:09;;;;;;;5.40;3.60;;;;;;;;;;5104974;28;20054;-59
2023/09/13 13:43:37;;;;;;;4.10;3.35;;;;;;;;;;5101503;28;20640;-58
2023/09/13 13:46:04;;;;;;;4.97;3.30;;;;;;;;;;5102417;28;20039;-58
2023/09/13 13:48:35;;;;;;;6.57;4.25;;;;;;;;;;5104333;28;20051;-58
2023/09/13 13:51:03;;;;;;;5.13;3.85;;;;;;;;;;5099821;28;20051;-58
2023/09/13 13:53:30;;;;;;;5.63;3.65;;;;;;;;;;5098100;28;20526;-58
2023/09/13 13:55:57;;;;;;;6.07;3.72;;;;;;;;;;5103838;28;20048;-58
2023/09/13 13:58:23;;;;;;;6.00;3.60;;;;;;;;;;5086212;28;20040;-58
2023/09/13 14:00:50;;;;;;;5.18;3.53;;;;;;;;;;5106896;28;20032;-58
2023/09/13 14:03:17;;;;;;;5.43;4.63;;;;;;;;;;5106538;28;20043;-59
2023/09/13 14:05:43;;;;;;;6.05;4.50;;;;;;;;;;5101762;28;20032;-59
2023/09/13 14:08:13;;;;;;;6.05;3.90;;;;;;;;;;5107127;28;20039;-58
2023/09/13 14:10:41;;;;;;;6.43;4.32;;;;;;;;;;5105676;28;20414;-58
2023/09/13 14:13:08;;;;;;;7.88;3.92;;;;;;;;;;5103870;28;20024;-59
2023/09/13 14:15:37;;;;;;;10.27;4.40;;;;;;;;;;5108315;28;20509;-57
2023/09/13 14:18:04;;;;;;;6.65;4.10;;;;;;;;;;5103396;28;20410;-58
2023/09/13 14:20:30;;;;;;;4.95;3.90;;;;;;;;;;5096727;28;20043;-58
2023/09/13 14:22:57;;;;;;;8.55;3.70;;;;;;;;;;5083283;28;20493;-58
2023/09/13 14:25:24;;;;;;;6.63;4.50;;;;;;;;;;5102478;28;20499;-58
2023/09/13 14:27:50;;;;;;;6.53;4.38;;;;;;;;;;5104960;28;20527;-58
2023/09/13 14:30:17;;;;;;;4.90;3.83;;;;;;;;;;5100605;28;20071;-59
2023/09/13 14:32:46;;;;;;;4.80;3.95;;;;;;;;;;5104475;28;20044;-58
2023/09/13 14:35:13;;;;;;;6.07;4.38;;;;;;;;;;5105698;28;20027;-59